Time;durP1;ratioP1;P1;durP2;ratioP2;P2;SDS_P1;SDS_P2;PMS_P1;PMS_P2;Temp;Humidity;BMP_temperature;BMP_pressure;BME280_temperature;BME280_humidity;BME280_pressure;Samples;Min_cycle;Max_cycle;Signal;HPM_P1;HPM_P2
2024/01/24 00:01:00;;;;;;;5.78;1.60;;;;;;;12.67;100.00;101357.94;5046273;28;20481;-67
2024/01/24 00:03:25;;;;;;;4.13;1.48;;;;;;;12.70;100.00;101352.28;5034797;28;20033;-68
2024/01/24 00:05:50;;;;;;;4.90;1.30;;;;;;;12.71;100.00;101319.28;5044957;28;20474;-67
2024/01/24 00:08:16;;;;;;;3.83;1.55;;;;;;;12.76;100.00;101339.28;5041634;28;20060;-67
2024/01/24 00:10:41;;;;;;;2.90;1.10;;;;;;;12.77;100.00;101349.78;5037645;28;20116;-68
2024/01/24 00:13:07;;;;;;;2.10;1.20;;;;;;;12.87;100.00;101365.56;5038070;28;20025;-67
2024/01/24 00:15:32;;;;;;;3.50;1.25;;;;;;;12.84;100.00;101364.06;5040088;28;20103;-67
2024/01/24 00:17:58;;;;;;;3.63;1.33;;;;;;;12.86;100.00;101361.22;5040938;28;20035;-67
2024/01/24 00:20:23;;;;;;;2.70;1.20;;;;;;;12.89;100.00;101340.38;5035157;28;20042;-69
2024/01/24 00:22:49;;;;;;;1.52;1.02;;;;;;;12.90;100.00;101344.72;5045750;28;20024;-67
2024/01/24 00:25:14;;;;;;;2.58;1.10;;;;;;;12.97;100.00;101334.19;5037732;28;20032;-68
2024/01/24 00:27:40;;;;;;;2.38;1.20;;;;;;;13.04;100.00;101308.50;5037495;28;20500;-68
2024/01/24 00:30:06;;;;;;;1.60;1.15;;;;;;;13.03;100.00;101337.00;5041947;28;20470;-68
2024/01/24 00:32:31;;;;;;;2.28;1.10;;;;;;;12.99;100.00;101324.16;5039252;28;20028;-68
2024/01/24 00:34:56;;;;;;;1.38;1.00;;;;;;;12.99;100.00;101305.50;5041328;28;20513;-67
2024/01/24 00:37:23;;;;;;;4.88;1.50;;;;;;;13.00;100.00;101326.66;5042221;28;20068;-68
2024/01/24 00:39:48;;;;;;;2.65;1.10;;;;;;;12.99;100.00;101321.50;5036789;28;20029;-68
2024/01/24 00:42:13;;;;;;;2.10;1.00;;;;;;;12.98;100.00;101311.84;5036837;28;20379;-68
2024/01/24 00:44:39;;;;;;;2.90;1.08;;;;;;;12.84;100.00;101326.75;5050544;28;20044;-67
2024/01/24 00:47:06;;;;;;;2.03;1.00;;;;;;;12.70;100.00;101311.47;5041775;28;20098;-67
2024/01/24 00:49:31;;;;;;;1.73;1.10;;;;;;;12.62;100.00;101301.69;5044635;28;20044;-68
2024/01/24 00:51:56;;;;;;;2.17;1.08;;;;;;;12.53;100.00;101318.72;5048502;28;20025;-68
2024/01/24 00:54:22;;;;;;;4.47;1.50;;;;;;;12.33;100.00;101302.28;5053418;28;20045;-69
2024/01/24 00:56:47;;;;;;;4.43;1.27;;;;;;;12.12;100.00;101314.47;5054105;28;20533;-67
2024/01/24 00:59:12;;;;;;;2.03;1.60;;;;;;;11.89;100.00;101309.84;5042478;28;20025;-68
2024/01/24 01:01:38;;;;;;;3.88;1.50;;;;;;;11.77;100.00;101316.47;5050582;28;20087;-67
2024/01/24 01:04:04;;;;;;;1.92;1.35;;;;;;;11.65;100.00;101291.19;5047479;28;20032;-67
2024/01/24 01:06:29;;;;;;;6.57;1.73;;;;;;;11.54;100.00;101299.50;5049587;28;20033;-68
2024/01/24 01:08:55;;;;;;;2.30;1.60;;;;;;;11.45;100.00;101298.66;5045557;28;20078;-69
2024/01/24 01:11:20;;;;;;;2.67;1.67;;;;;;;11.39;100.00;101321.44;5041531;28;20032;-67
2024/01/24 01:13:45;;;;;;;4.25;2.10;;;;;;;11.35;100.00;101292.69;5049941;28;20461;-69
2024/01/24 01:16:11;;;;;;;4.90;2.38;;;;;;;11.30;100.00;101282.53;5038140;28;20033;-67
2024/01/24 01:18:36;;;;;;;5.00;2.70;;;;;;;11.30;100.00;101293.19;5047817;28;20478;-69
2024/01/24 01:21:01;;;;;;;3.33;2.80;;;;;;;11.27;100.00;101282.84;5041704;28;20024;-69
2024/01/24 01:23:27;;;;;;;4.18;2.67;;;;;;;11.27;100.00;101309.44;5046222;28;20099;-68
2024/01/24 01:25:52;;;;;;;4.30;2.95;;;;;;;11.22;100.00;101298.47;5046064;28;20575;-68
2024/01/24 01:28:18;;;;;;;6.47;2.78;;;;;;;11.21;100.00;101310.09;5044092;28;20033;-68
2024/01/24 01:30:43;;;;;;;5.45;2.90;;;;;;;11.19;100.00;101285.50;5048669;28;20037;-67
2024/01/24 01:33:09;;;;;;;3.55;3.03;;;;;;;11.22;100.00;101258.56;5036218;28;20037;-67
2024/01/24 01:35:35;;;;;;;4.30;2.47;;;;;;;11.23;100.00;101308.09;5044920;28;20106;-67
2024/01/24 01:38:01;;;;;;;4.45;2.97;;;;;;;11.25;100.00;101307.94;5047255;28;20029;-68
2024/01/24 01:40:26;;;;;;;3.10;2.80;;;;;;;11.24;100.00;101298.28;5042088;28;20033;-69
2024/01/24 01:42:52;;;;;;;3.45;3.15;;;;;;;11.18;100.00;101302.44;5044155;28;20063;-68
2024/01/24 01:45:17;;;;;;;3.45;2.53;;;;;;;11.23;100.00;101270.88;5047217;28;20128;-68
2024/01/24 01:47:43;;;;;;;4.57;2.70;;;;;;;11.20;100.00;101303.09;5048444;28;20040;-70
2024/01/24 01:50:10;;;;;;;4.50;3.05;;;;;;;11.21;100.00;101314.56;5047285;28;20475;-67
2024/01/24 01:52:37;;;;;;;5.65;3.10;;;;;;;11.15;100.00;101300.94;5044158;28;20035;-67
2024/01/24 01:55:04;;;;;;;4.22;3.50;;;;;;;11.13;100.00;101331.34;5040224;28;20486;-67
2024/01/24 01:57:31;;;;;;;3.42;3.13;;;;;;;11.13;100.00;101297.63;5054856;28;20032;-66
2024/01/24 01:59:57;;;;;;;4.10;3.53;;;;;;;11.11;100.00;101294.28;5041540;28;20171;-65
2024/01/24 02:02:22;;;;;;;5.53;3.72;;;;;;;11.10;100.00;101319.22;5046873;28;20131;-65
2024/01/24 02:04:47;;;;;;;4.22;3.72;;;;;;;11.12;100.00;101308.41;5035895;28;20068;-65
2024/01/24 02:07:13;;;;;;;4.50;4.07;;;;;;;11.09;100.00;101290.13;5041797;28;20074;-65
2024/01/24 02:09:39;;;;;;;3.80;3.45;;;;;;;11.07;100.00;101303.59;5044012;28;20575;-65
2024/01/24 02:12:05;;;;;;;4.13;3.72;;;;;;;11.04;100.00;101297.78;5047801;28;20028;-65
2024/01/24 02:14:30;;;;;;;5.43;3.60;;;;;;;11.07;100.00;101308.06;5043942;28;20021;-65
2024/01/24 02:16:55;;;;;;;3.72;2.88;;;;;;;11.05;100.00;101299.44;5049847;28;20833;-65
2024/01/24 02:19:21;;;;;;;3.50;3.20;;;;;;;11.04;100.00;101297.78;5040506;28;20701;-65
2024/01/24 02:21:46;;;;;;;3.33;3.03;;;;;;;11.04;100.00;101295.13;5047525;28;20032;-65
2024/01/24 02:24:12;;;;;;;2.75;2.55;;;;;;;11.02;100.00;101291.78;5039579;28;20078;-65
2024/01/24 02:26:38;;;;;;;3.22;2.92;;;;;;;11.02;100.00;101284.66;5045835;28;20021;-66
2024/01/24 02:29:04;;;;;;;3.15;2.60;;;;;;;11.02;100.00;101289.97;5048568;28;20035;-66
2024/01/24 02:31:29;;;;;;;4.68;2.58;;;;;;;11.01;100.00;101287.47;5033517;28;20030;-66
2024/01/24 02:33:54;;;;;;;2.88;2.55;;;;;;;11.01;100.00;101288.31;5038451;28;20112;-66
2024/01/24 02:36:20;;;;;;;2.70;2.50;;;;;;;11.01;100.00;101284.81;5045088;28;20045;-66
2024/01/24 02:38:45;;;;;;;3.50;2.50;;;;;;;11.03;100.00;101290.78;5039536;28;20035;-65
2024/01/24 02:41:11;;;;;;;2.90;2.70;;;;;;;11.05;100.00;101304.75;5042136;28;20031;-66
2024/01/24 02:43:36;;;;;;;2.78;2.58;;;;;;;11.08;100.00;101323.03;5034988;28;20044;-66
2024/01/24 02:46:02;;;;;;;3.40;2.90;;;;;;;11.09;100.00;101327.34;5043641;28;20107;-66
2024/01/24 02:48:28;;;;;;;3.00;2.80;;;;;;;11.08;100.00;101321.19;5042148;28;20033;-66
2024/01/24 02:50:53;;;;;;;3.33;3.03;;;;;;;11.08;100.00;101326.53;5041906;28;20107;-65
2024/01/24 02:53:19;;;;;;;3.30;3.00;;;;;;;11.09;100.00;101325.53;5037973;28;20060;-66
2024/01/24 02:55:45;;;;;;;3.35;3.05;;;;;;;11.13;100.00;101347.28;5038716;28;20636;-66
2024/01/24 02:58:11;;;;;;;3.10;2.80;;;;;;;11.15;100.00;101350.63;5043525;28;20383;-66
2024/01/24 03:00:36;;;;;;;3.70;3.40;;;;;;;11.12;100.00;101287.97;5042167;28;20585;-66
2024/01/24 03:03:02;;;;;;;3.20;3.00;;;;;;;11.14;100.00;101290.47;5039552;28;20036;-66
2024/01/24 03:05:27;;;;;;;3.70;3.33;;;;;;;11.14;100.00;101311.75;5043204;28;20025;-66
2024/01/24 03:07:53;;;;;;;3.70;3.40;;;;;;;11.14;100.00;101301.09;5041347;28;20013;-66
2024/01/24 03:10:20;;;;;;;4.18;3.47;;;;;;;11.16;100.00;101307.91;5039884;28;20676;-66
2024/01/24 03:12:46;;;;;;;4.63;3.58;;;;;;;11.15;100.00;101310.75;5044144;28;20115;-66
2024/01/24 03:15:11;;;;;;;4.43;4.03;;;;;;;11.19;100.00;101301.44;5047074;28;20017;-66
2024/01/24 03:17:36;;;;;;;4.90;4.50;;;;;;;11.13;100.00;101334.84;5038824;28;20025;-66
2024/01/24 03:20:03;;;;;;;5.05;4.55;;;;;;;11.14;100.00;101319.72;5045020;28;20096;-66
2024/01/24 03:22:29;;;;;;;4.85;4.43;;;;;;;11.12;100.00;101311.91;5044004;28;20378;-66
2024/01/24 03:24:54;;;;;;;4.90;4.40;;;;;;;11.07;100.00;101308.91;5048417;28;20753;-67
2024/01/24 03:27:20;;;;;;;5.28;4.72;;;;;;;11.07;100.00;101346.13;5048953;28;20028;-66
2024/01/24 03:29:45;;;;;;;3.88;3.47;;;;;;;11.10;100.00;101331.66;5045973;28;20855;-66
2024/01/24 03:32:11;;;;;;;4.63;3.78;;;;;;;11.07;100.00;101355.91;5044418;28;20119;-66
2024/01/24 03:34:36;;;;;;;6.50;3.50;;;;;;;11.02;100.00;101380.31;5037204;28;20033;-67
2024/01/24 03:37:02;;;;;;;5.70;2.40;;;;;;;11.06;100.00;101348.94;5044053;28;20032;-66
2024/01/24 03:39:28;;;;;;;7.63;2.60;;;;;;;10.97;100.00;101363.16;5048016;28;20027;-67
2024/01/24 03:41:53;;;;;;;11.68;2.47;;;;;;;10.92;100.00;101398.19;5046543;28;20051;-67
2024/01/24 03:44:18;;;;;;;6.82;1.60;;;;;;;10.95;100.00;101368.66;5045100;28;20490;-68
2024/01/24 03:46:44;;;;;;;7.60;2.08;;;;;;;10.93;100.00;101383.09;5040188;28;20543;-67
2024/01/24 03:49:09;;;;;;;6.43;1.98;;;;;;;10.89;100.00;101373.78;5048682;28;20091;-68
2024/01/24 03:51:34;;;;;;;7.85;1.88;;;;;;;10.82;100.00;101393.00;5042588;28;20067;-68
2024/01/24 03:54:00;;;;;;;10.35;1.92;;;;;;;10.80;100.00;101389.69;5045413;28;20522;-67
2024/01/24 03:56:25;;;;;;;7.97;1.98;;;;;;;10.84;100.00;101372.44;5030931;28;20041;-68
2024/01/24 03:58:50;;;;;;;8.73;2.20;;;;;;;10.82;100.00;101395.66;5047133;28;20039;-67
2024/01/24 04:01:16;;;;;;;10.05;2.30;;;;;;;10.91;100.00;101446.19;5045225;28;20029;-67
2024/01/24 04:03:41;;;;;;;9.52;2.10;;;;;;;11.08;100.00;101385.00;5036603;28;20025;-67
2024/01/24 04:06:07;;;;;;;11.40;2.22;;;;;;;11.26;100.00;101363.59;5042250;28;20032;-67
2024/01/24 04:08:32;;;;;;;12.70;2.40;;;;;;;11.29;100.00;101354.50;5039229;28;20601;-67
2024/01/24 04:10:57;;;;;;;12.80;2.70;;;;;;;11.39;100.00;101361.31;5038162;28;20395;-68
2024/01/24 04:13:24;;;;;;;11.30;2.83;;;;;;;11.45;100.00;101350.03;5043052;28;20402;-67
2024/01/24 04:15:49;;;;;;;11.13;2.80;;;;;;;11.54;100.00;101414.69;5040555;28;20534;-67
2024/01/24 04:18:14;;;;;;;16.10;3.13;;;;;;;11.67;100.00;101387.63;5038824;28;20031;-68
2024/01/24 04:20:40;;;;;;;13.52;3.40;;;;;;;11.72;100.00;101380.81;5036934;28;20021;-68
2024/01/24 04:23:05;;;;;;;13.23;2.30;;;;;;;11.74;100.00;101399.28;5036725;28;20032;-68
2024/01/24 04:25:30;;;;;;;14.43;3.22;;;;;;;11.75;100.00;101404.44;5027677;28;20044;-68
2024/01/24 04:27:56;;;;;;;13.02;3.45;;;;;;;11.83;100.00;101413.44;5038276;28;20036;-68
2024/01/24 04:30:22;;;;;;;17.27;3.90;;;;;;;11.83;100.00;101432.06;5049159;28;20119;-67
2024/01/24 04:32:47;;;;;;;13.48;2.80;;;;;;;11.81;99.52;101407.47;5039437;28;20041;-67
2024/01/24 04:35:13;;;;;;;19.63;3.45;;;;;;;11.78;99.91;101417.44;5038023;28;20639;-68
2024/01/24 04:37:38;;;;;;;18.23;3.08;;;;;;;11.75;99.40;101422.22;5049477;28;20091;-68
2024/01/24 04:40:04;;;;;;;19.38;3.35;;;;;;;11.71;99.11;101428.88;5043721;28;20048;-68
2024/01/24 04:42:30;;;;;;;17.02;3.45;;;;;;;11.69;98.88;101436.19;5038779;28;20037;-67
2024/01/24 04:44:55;;;;;;;19.88;3.97;;;;;;;11.69;98.66;101457.47;5031759;28;20033;-67
2024/01/24 04:47:21;;;;;;;17.90;3.30;;;;;;;11.57;98.82;101448.97;5039253;28;20110;-67
2024/01/24 04:49:46;;;;;;;17.65;3.90;;;;;;;11.56;97.77;101447.28;5039492;28;20052;-67
2024/01/24 04:52:13;;;;;;;18.58;3.88;;;;;;;11.62;96.70;101432.53;5046671;28;20047;-68
2024/01/24 04:54:41;;;;;;;21.10;3.67;;;;;;;11.60;96.05;101438.00;5040776;28;20052;-67
2024/01/24 04:57:06;;;;;;;16.27;3.80;;;;;;;11.63;95.69;101434.19;5044036;28;20067;-67
2024/01/24 04:59:32;;;;;;;15.40;3.45;;;;;;;11.54;95.90;101451.94;5041333;28;20398;-67
2024/01/24 05:01:57;;;;;;;20.00;4.15;;;;;;;11.55;95.29;101461.59;5043225;28;20021;-68
2024/01/24 05:04:23;;;;;;;22.23;4.03;;;;;;;11.54;95.37;101449.28;5048853;28;20474;-68
2024/01/24 05:06:49;;;;;;;20.65;4.05;;;;;;;11.56;95.02;101459.75;5041971;28;20025;-67
2024/01/24 05:09:14;;;;;;;24.83;4.47;;;;;;;11.45;94.85;101458.22;5041810;28;20055;-67
2024/01/24 05:11:42;;;;;;;24.63;4.28;;;;;;;11.38;94.67;101466.03;5041978;28;20065;-67
2024/01/24 05:14:08;;;;;;;24.90;4.60;;;;;;;11.34;95.03;101480.66;5035591;28;20032;-67
2024/01/24 05:16:33;;;;;;;21.02;4.38;;;;;;;11.35;95.13;101492.13;5038594;28;20033;-67
2024/01/24 05:18:59;;;;;;;20.17;3.75;;;;;;;11.40;95.00;101461.38;5041150;28;20112;-67
2024/01/24 05:21:24;;;;;;;29.40;5.15;;;;;;;11.36;95.01;101483.16;5037403;28;20104;-67
2024/01/24 05:23:51;;;;;;;21.48;4.53;;;;;;;11.33;95.22;101502.06;5036690;28;20143;-67
2024/01/24 05:26:16;;;;;;;22.88;4.55;;;;;;;11.28;95.06;101497.25;5038179;28;20287;-68
2024/01/24 05:28:41;;;;;;;22.50;4.82;;;;;;;11.31;94.60;101480.13;5038447;28;20628;-68
2024/01/24 05:31:07;;;;;;;24.15;4.85;;;;;;;11.32;94.06;101479.97;5035868;28;20117;-68
2024/01/24 05:33:33;;;;;;;26.55;4.90;;;;;;;11.35;93.47;101474.31;5038709;28;20033;-67
2024/01/24 05:35:58;;;;;;;23.52;5.15;;;;;;;11.25;93.90;101472.78;5038701;28;20040;-68
2024/01/24 05:38:24;;;;;;;26.67;5.13;;;;;;;11.29;93.38;101488.28;5050127;28;20036;-68
2024/01/24 05:40:49;;;;;;;22.77;4.85;;;;;;;11.28;93.29;101505.22;5041871;28;20085;-65
2024/01/24 05:43:14;;;;;;;23.17;4.68;;;;;;;11.27;93.58;101460.16;5047150;28;20032;-66
2024/01/24 05:45:40;;;;;;;19.45;4.60;;;;;;;11.31;93.19;101475.66;5037155;28;20057;-66
2024/01/24 05:48:05;;;;;;;26.00;5.05;;;;;;;11.29;93.15;101485.63;5049870;28;20107;-64
2024/01/24 05:50:31;;;;;;;24.83;5.68;;;;;;;11.29;93.18;101476.81;5040306;28;20096;-65
2024/01/24 05:52:57;;;;;;;23.35;4.85;;;;;;;11.22;93.58;101503.16;5048617;28;20296;-65
2024/01/24 05:55:23;;;;;;;26.85;5.57;;;;;;;11.15;93.31;101463.09;5054644;28;20040;-64
2024/01/24 05:57:49;;;;;;;25.17;5.20;;;;;;;11.21;93.10;101495.34;5039125;28;20683;-68
2024/01/24 06:00:14;;;;;;;20.90;4.05;;;;;;;11.21;92.76;101474.91;5042826;28;20017;-67
2024/01/24 06:02:40;;;;;;;25.27;5.43;;;;;;;11.27;92.72;101506.19;5046291;28;20036;-68
2024/01/24 06:05:07;;;;;;;32.33;5.43;;;;;;;11.26;92.47;101519.63;5050168;28;20028;-68
2024/01/24 06:07:33;;;;;;;26.13;5.45;;;;;;;11.31;91.88;101591.81;5045775;28;20028;-67
2024/01/24 06:09:59;;;;;;;30.38;5.13;;;;;;;11.23;92.21;101531.41;5048059;28;20085;-68
2024/01/24 06:12:24;;;;;;;31.08;6.20;;;;;;;11.26;92.02;101538.25;5046076;28;20028;-67
2024/01/24 06:14:50;;;;;;;31.17;5.38;;;;;;;11.23;91.49;101526.09;5039390;28;20157;-68
2024/01/24 06:17:16;;;;;;;30.73;6.55;;;;;;;11.17;91.16;101553.31;5037648;28;20029;-68
2024/01/24 06:19:43;;;;;;;24.95;5.00;;;;;;;11.16;90.71;101562.28;5045561;28;20597;-67
2024/01/24 06:22:08;;;;;;;32.33;5.55;;;;;;;11.16;90.67;101604.81;5041375;28;20393;-67
2024/01/24 06:24:35;;;;;;;29.30;4.97;;;;;;;11.12;90.36;101603.47;5039991;28;20482;-68
2024/01/24 06:27:00;;;;;;;35.60;5.55;;;;;;;11.03;89.86;101575.19;5043331;28;20029;-68
2024/01/24 06:29:26;;;;;;;31.83;5.88;;;;;;;10.92;90.07;101600.16;5038400;28;20463;-68
2024/01/24 06:31:51;;;;;;;35.60;6.35;;;;;;;10.85;89.68;101585.81;5042949;28;20477;-68
2024/01/24 06:34:16;;;;;;;35.00;5.50;;;;;;;10.75;89.78;101628.44;5043107;28;20172;-67
2024/01/24 06:36:42;;;;;;;29.30;6.60;;;;;;;10.72;89.16;101622.59;5043574;28;20047;-68
2024/01/24 06:39:07;;;;;;;34.20;6.28;;;;;;;10.68;88.89;101645.94;5051371;28;20581;-68
2024/01/24 06:41:33;;;;;;;36.63;7.18;;;;;;;10.61;88.68;101647.53;5039391;28;20033;-68
2024/01/24 06:43:58;;;;;;;41.58;6.07;;;;;;;10.67;88.97;101652.25;5044735;28;20543;-68
2024/01/24 06:46:26;;;;;;;33.67;6.57;;;;;;;10.60;89.49;101683.06;5032334;28;20041;-68
2024/01/24 06:48:52;;;;;;;32.92;6.22;;;;;;;10.56;89.63;101665.75;5048597;28;20025;-68
2024/01/24 06:51:17;;;;;;;39.83;5.70;;;;;;;10.55;89.85;101667.56;5046846;28;20040;-68
2024/01/24 06:53:43;;;;;;;42.78;7.22;;;;;;;10.53;89.51;101697.94;5039408;28;20067;-68
2024/01/24 06:56:08;;;;;;;32.33;7.07;;;;;;;10.49;89.53;101708.00;5035362;28;20135;-69
2024/01/24 06:58:35;;;;;;;34.90;7.45;;;;;;;10.50;89.51;101769.94;5043785;28;20083;-68
2024/01/24 07:01:00;;;;;;;30.88;6.63;;;;;;;10.47;88.84;101695.88;5041551;28;20148;-69
2024/01/24 07:03:25;;;;;;;41.67;7.88;;;;;;;10.43;88.45;101686.53;5042452;28;20595;-67
2024/01/24 07:05:51;;;;;;;41.85;6.53;;;;;;;10.31;88.55;101695.66;5039369;28;20059;-67
2024/01/24 07:08:16;;;;;;;33.85;6.50;;;;;;;10.19;88.88;101684.38;5041031;28;20054;-68
2024/01/24 07:10:42;;;;;;;32.97;6.53;;;;;;;10.24;87.90;101693.63;5045006;28;20841;-67
2024/01/24 07:13:07;;;;;;;36.25;7.07;;;;;;;10.19;87.40;101697.66;5039109;28;20033;-68
2024/01/24 07:15:32;;;;;;;25.67;5.95;;;;;;;10.18;86.97;101704.78;5036288;28;20032;-69
2024/01/24 07:17:58;;;;;;;37.55;6.68;;;;;;;10.11;86.58;101730.22;5044870;28;20025;-68
2024/01/24 07:20:23;;;;;;;33.38;6.65;;;;;;;10.11;86.57;101734.69;5039654;28;20032;-68
2024/01/24 07:22:49;;;;;;;29.58;5.82;;;;;;;10.07;85.92;101720.88;5041256;28;20484;-67
2024/01/24 07:25:15;;;;;;;44.65;7.45;;;;;;;10.08;86.38;101711.09;5045329;28;20109;-68
2024/01/24 07:27:40;;;;;;;41.65;7.15;;;;;;;10.03;85.13;101697.44;5040909;28;20486;-68
2024/01/24 07:30:06;;;;;;;37.95;7.43;;;;;;;9.99;85.22;101719.94;5040915;28;20028;-70
2024/01/24 07:32:31;;;;;;;35.53;6.93;;;;;;;10.01;84.90;101755.13;5049549;28;20032;-69
2024/01/24 07:35:01;;;;;;;41.72;7.63;;;;;;;10.04;84.88;101734.44;5051337;28;20484;-68
2024/01/24 07:37:26;;;;;;;;;;;;;;;10.09;85.53;101747.28;5044657;28;20067;-68
2024/01/24 07:39:51;;;;;;;47.00;8.00;;;;;;;9.99;85.69;101744.66;5054394;28;20401;-68
2024/01/24 07:42:18;;;;;;;40.67;7.13;;;;;;;9.93;85.66;101775.28;5040055;28;20462;-69
2024/01/24 07:44:43;;;;;;;38.72;7.10;;;;;;;9.93;85.70;101742.59;5041623;28;20497;-68
2024/01/24 07:47:08;;;;;;;45.42;8.40;;;;;;;9.92;86.00;101760.34;5039183;28;20035;-68
2024/01/24 07:49:34;;;;;;;39.17;7.88;;;;;;;9.94;85.71;101760.19;5040370;28;20025;-68
2024/01/24 07:52:00;;;;;;;37.47;6.22;;;;;;;9.89;85.54;101767.75;5038232;28;20037;-68
2024/01/24 07:54:25;;;;;;;45.20;8.10;;;;;;;9.84;85.88;101772.66;5041691;28;20655;-69
2024/01/24 07:56:50;;;;;;;28.95;6.60;;;;;;;9.87;85.53;101828.06;5049518;28;20017;-68
2024/01/24 07:59:16;;;;;;;38.15;6.20;;;;;;;9.83;84.85;101763.00;5047674;28;20550;-68
2024/01/24 08:01:47;;;;;;;40.63;7.47;;;;;;;9.84;84.05;101799.19;5042428;28;20538;-68
2024/01/24 08:04:14;;;;;;;36.28;7.55;;;;;;;9.89;83.71;101802.25;5037158;28;20029;-68
2024/01/24 08:06:40;;;;;;;37.08;6.18;;;;;;;9.90;83.39;101798.59;5037365;28;20379;-68
2024/01/24 08:09:06;;;;;;;42.75;6.68;;;;;;;9.81;83.02;101781.69;5042009;28;20032;-68
2024/01/24 08:11:31;;;;;;;39.47;6.78;;;;;;;9.85;82.78;101811.47;5034825;28;20037;-68
2024/01/24 08:13:57;;;;;;;44.40;7.72;;;;;;;9.82;82.16;101806.41;5047656;28;20083;-68
2024/01/24 08:16:22;;;;;;;38.80;6.68;;;;;;;9.83;82.33;101816.03;5030846;28;20033;-69
2024/01/24 08:18:48;;;;;;;39.30;7.18;;;;;;;9.85;81.79;101824.72;5037186;28;20060;-68
2024/01/24 08:21:14;;;;;;;40.20;7.45;;;;;;;9.82;81.51;101827.63;5046973;28;20028;-68
2024/01/24 08:23:39;;;;;;;38.20;7.28;;;;;;;9.83;81.28;101827.53;5044629;28;20394;-68
2024/01/24 08:26:04;;;;;;;41.53;7.32;;;;;;;9.87;81.45;101828.06;5049997;28;20033;-68
2024/01/24 08:28:30;;;;;;;35.40;7.78;;;;;;;9.87;81.16;101859.91;5050757;28;20040;-68
2024/01/24 08:30:55;;;;;;;40.67;6.80;;;;;;;9.84;81.13;101839.81;5042570;28;20450;-68
2024/01/24 08:33:21;;;;;;;35.83;6.65;;;;;;;9.82;81.34;101840.91;5038847;28;20029;-68
2024/01/24 08:35:46;;;;;;;40.28;7.05;;;;;;;9.77;81.57;101830.72;5046184;28;20048;-69
2024/01/24 08:38:11;;;;;;;34.10;7.43;;;;;;;9.80;81.89;101859.63;5042862;28;20027;-69
2024/01/24 08:40:39;;;;;;;42.88;7.50;;;;;;;9.81;81.79;101884.31;5040965;28;20033;-68
2024/01/24 08:43:04;;;;;;;44.58;8.13;;;;;;;9.80;82.44;101875.53;5047706;28;20147;-68
2024/01/24 08:45:30;;;;;;;41.95;6.50;;;;;;;9.80;82.28;101880.84;5048887;28;20495;-67
2024/01/24 08:47:55;;;;;;;39.47;7.47;;;;;;;9.78;82.74;101871.34;5036250;28;20025;-68
2024/01/24 08:50:22;;;;;;;39.85;7.80;;;;;;;9.77;83.09;101890.88;5037804;28;20040;-68
2024/01/24 08:52:49;;;;;;;41.13;7.88;;;;;;;9.81;82.80;101893.13;5043376;28;20029;-68
2024/01/24 08:55:16;;;;;;;39.88;7.07;;;;;;;9.80;83.24;101887.97;5040795;28;20624;-68
2024/01/24 08:57:42;;;;;;;39.08;7.55;;;;;;;9.82;82.75;101862.97;5040161;28;20029;-68
2024/01/24 09:00:09;;;;;;;40.33;7.90;;;;;;;9.83;82.69;101877.06;5038990;28;20103;-68
2024/01/24 09:02:34;;;;;;;36.72;7.05;;;;;;;9.84;82.63;101870.81;5038136;28;20502;-68
2024/01/24 09:05:00;;;;;;;43.88;6.97;;;;;;;9.87;82.63;101902.38;5048171;28;20040;-68
2024/01/24 09:07:25;;;;;;;33.83;6.78;;;;;;;9.83;82.32;101903.59;5041978;28;20029;-68
2024/01/24 09:09:51;;;;;;;35.10;6.05;;;;;;;9.87;82.58;101920.94;5044033;28;20037;-68
2024/01/24 09:12:17;;;;;;;38.33;7.65;;;;;;;9.84;82.32;101948.59;5044401;28;20163;-68
2024/01/24 09:14:44;;;;;;;32.88;6.80;;;;;;;9.84;82.33;101894.69;5037248;28;20094;-69
2024/01/24 09:17:13;;;;;;;41.75;7.10;;;;;;;9.84;82.12;101897.34;5039244;28;20162;-68
2024/01/24 09:19:40;;;;;;;29.80;6.43;;;;;;;9.85;82.22;101930.84;5037811;28;20078;-68
2024/01/24 09:22:06;;;;;;;48.03;7.53;;;;;;;9.90;82.06;101894.97;5045817;28;20103;-68
2024/01/24 09:24:32;;;;;;;43.85;6.72;;;;;;;9.93;81.74;101928.34;5037051;28;20116;-68
2024/01/24 09:26:57;;;;;;;45.90;7.25;;;;;;;9.91;82.46;101922.31;5048109;28;20040;-68
2024/01/24 09:29:22;;;;;;;41.90;6.90;;;;;;;9.98;82.26;101941.19;5047697;28;20167;-68
2024/01/24 09:31:48;;;;;;;35.03;6.63;;;;;;;10.01;82.04;101962.97;5054814;28;20024;-68
2024/01/24 09:34:13;;;;;;;41.72;6.90;;;;;;;9.99;82.09;101964.91;5045851;28;20032;-67
2024/01/24 09:36:39;;;;;;;31.88;6.63;;;;;;;10.02;81.78;101964.63;5048439;28;20383;-68
2024/01/24 09:39:04;;;;;;;38.67;7.65;;;;;;;10.02;81.39;101975.25;5037880;28;20079;-68
2024/01/24 09:41:41;;;;;;;39.10;7.05;;;;;;;10.13;81.20;101984.91;5043024;28;20024;-68
2024/01/24 09:44:08;;;;;;;36.58;7.00;;;;;;;10.07;81.03;102028.75;5036982;28;20025;-68
2024/01/24 09:46:36;;;;;;;41.10;6.47;;;;;;;10.08;81.21;101985.31;5038335;28;20051;-68
2024/01/24 09:49:02;;;;;;;43.53;6.93;;;;;;;10.07;80.65;101998.72;5038068;28;20024;-69
2024/01/24 09:51:33;;;;;;;38.60;7.65;;;;;;;9.99;80.81;101954.31;5038503;28;20487;-68
2024/01/24 09:54:03;;;;;;;30.30;6.55;;;;;;;10.03;80.63;101987.53;5043976;28;20490;-68
2024/01/24 09:56:31;;;;;;;35.58;7.20;;;;;;;10.06;80.52;101987.25;5040297;28;20056;-68
2024/01/24 09:58:56;;;;;;;36.67;6.18;;;;;;;10.05;80.34;101996.19;5046037;28;20031;-67
2024/01/24 10:01:24;;;;;;;39.38;6.40;;;;;;;10.06;80.14;101976.66;5039959;28;20026;-67
2024/01/24 10:03:52;;;;;;;49.08;7.43;;;;;;;10.05;80.01;101998.00;5040811;28;20128;-68
2024/01/24 10:06:18;;;;;;;35.72;7.15;;;;;;;10.12;80.10;102007.09;5039723;28;20398;-68
2024/01/24 10:08:43;;;;;;;39.58;6.60;;;;;;;10.13;80.31;101996.38;5039273;28;20037;-68
2024/01/24 10:11:09;;;;;;;36.33;7.15;;;;;;;10.21;79.88;102009.81;5041388;28;20032;-68
2024/01/24 10:13:36;;;;;;;38.67;7.10;;;;;;;10.22;79.72;102024.75;5038926;28;20098;-68
2024/01/24 10:16:05;;;;;;;32.90;6.40;;;;;;;10.28;79.61;102031.31;5036997;28;20033;-68
2024/01/24 10:18:31;;;;;;;37.35;6.25;;;;;;;10.32;78.91;102006.16;5040315;28;20064;-67
2024/01/24 10:20:56;;;;;;;36.05;6.80;;;;;;;10.36;78.96;102035.91;5038532;28;20740;-68
2024/01/24 10:23:22;;;;;;;37.22;6.57;;;;;;;10.39;78.68;102035.63;5041920;28;20106;-67
2024/01/24 10:25:47;;;;;;;43.35;6.57;;;;;;;10.37;79.29;102040.25;5042335;28;20035;-68
2024/01/24 10:28:13;;;;;;;39.78;6.88;;;;;;;10.42;78.38;102040.69;5035540;28;20074;-68
2024/01/24 10:30:42;;;;;;;39.03;7.55;;;;;;;10.47;78.54;102030.50;5039690;28;20021;-68
2024/01/24 10:33:12;;;;;;;32.77;6.10;;;;;;;10.47;77.96;102041.13;5034004;28;20028;-68
2024/01/24 10:35:38;;;;;;;34.88;6.80;;;;;;;10.49;77.57;102074.53;5038225;28;20028;-68
2024/01/24 10:38:04;;;;;;;26.92;5.75;;;;;;;10.45;76.95;102093.53;5038987;28;20449;-68
2024/01/24 10:40:31;;;;;;;26.77;5.60;;;;;;;10.44;76.73;102062.63;5038275;28;20029;-68
2024/01/24 10:43:02;;;;;;;35.15;5.60;;;;;;;10.44;76.74;102091.84;5038302;28;20041;-68
2024/01/24 10:45:30;;;;;;;34.10;5.85;;;;;;;10.42;75.91;102084.03;5050401;28;20035;-68
2024/01/24 10:47:57;;;;;;;41.40;6.93;;;;;;;10.41;76.00;102073.53;5045089;28;20024;-68
2024/01/24 10:50:24;;;;;;;30.33;5.93;;;;;;;10.48;76.13;102086.13;5040939;28;20037;-68
2024/01/24 10:52:51;;;;;;;33.38;6.38;;;;;;;10.40;75.88;102085.94;5037890;28;20036;-68
2024/01/24 10:55:17;;;;;;;30.10;6.60;;;;;;;10.41;75.84;102078.84;5033823;28;20083;-69
2024/01/24 10:57:44;;;;;;;34.00;6.55;;;;;;;10.39;75.95;102075.47;5032765;28;20660;-68
2024/01/24 11:00:11;;;;;;;39.25;6.82;;;;;;;10.32;75.87;102082.31;5031564;28;20021;-69
2024/01/24 11:02:38;;;;;;;37.45;6.75;;;;;;;10.36;76.13;102140.31;5033838;28;20029;-68
2024/01/24 11:05:07;;;;;;;42.92;6.63;;;;;;;10.39;76.23;102091.41;5043750;28;20052;-68
2024/01/24 11:07:41;;;;;;;34.25;6.63;;;;;;;10.36;76.43;102094.34;5031638;28;20064;-68
2024/01/24 11:10:40;;;;;;;36.08;6.53;;;;;;;10.43;76.01;102100.81;5034139;28;20025;-68
2024/01/24 11:13:07;;;;;;;36.53;6.20;;;;;;;10.39;75.74;102116.16;5015370;28;20041;-68